Time;durP1;ratioP1;P1;durP2;ratioP2;P2;SDS_P1;SDS_P2;PMS_P1;PMS_P2;Temp;Humidity;BMP_temperature;BMP_pressure;BME280_temperature;BME280_humidity;BME280_pressure;Samples;Min_cycle;Max_cycle;Signal;HPM_P1;HPM_P2
2022/08/27 00:01:21;;;;;;;24.08;19.65;;;18.40;99.90;;;17.89;100.00;98135.22;4980329;28;20469;-67
2022/08/27 00:03:48;;;;;;;28.02;23.80;;;18.40;99.90;;;17.86;100.00;98141.53;4982724;28;20108;-67
2022/08/27 00:06:18;;;;;;;30.38;24.70;;;18.40;99.90;;;17.86;100.00;98141.53;4981176;28;20094;-67
2022/08/27 00:08:47;;;;;;;36.05;28.13;;;18.40;99.90;;;17.80;100.00;98141.03;4985388;28;20246;-67
2022/08/27 00:11:16;;;;;;;32.55;28.30;;;18.40;99.90;;;17.72;100.00;98141.50;4982037;28;20082;-67
2022/08/27 00:13:43;;;;;;;27.08;24.17;;;18.30;99.90;;;17.69;100.00;98145.16;4988338;28;20108;-67
2022/08/27 00:16:13;;;;;;;23.67;19.88;;;18.30;99.90;;;17.81;100.00;98159.31;4983911;28;20186;-66
2022/08/27 00:18:42;;;;;;;30.13;25.77;;;18.40;99.90;;;17.82;100.00;98153.16;4983007;28;20085;-65
2022/08/27 00:21:15;;;;;;;27.42;24.45;;;18.40;99.90;;;17.83;100.00;98148.75;4985222;28;20046;-66
2022/08/27 00:23:42;;;;;;;32.97;26.23;;;18.40;99.90;;;17.91;100.00;98146.47;4967830;28;20149;-67
2022/08/27 00:26:09;;;;;;;27.85;23.95;;;18.40;99.90;;;17.98;100.00;98145.97;4983817;28;20458;-67
2022/08/27 00:28:37;;;;;;;27.38;24.48;;;18.40;99.90;;;17.96;100.00;98136.53;4988649;28;20509;-67
2022/08/27 00:31:04;;;;;;;30.58;24.98;;;18.50;99.90;;;17.95;100.00;98135.69;4984835;28;20120;-65
2022/08/27 00:33:31;;;;;;;25.92;23.00;;;18.50;99.90;;;17.98;100.00;98138.09;4983222;28;20494;-66
2022/08/27 00:35:59;;;;;;;26.10;22.85;;;18.50;99.90;;;17.95;100.00;98140.09;4980858;28;20129;-67
2022/08/27 00:38:26;;;;;;;29.50;21.10;;;18.60;99.90;;;17.98;100.00;98135.47;4974612;28;20064;-67
2022/08/27 00:40:54;;;;;;;27.65;24.35;;;18.60;99.90;;;18.05;100.00;98141.19;4980660;28;20121;-67
2022/08/27 00:43:45;;;;;;;27.02;24.00;;;18.60;99.90;;;18.08;100.00;98135.72;4998230;28;20085;-65
2022/08/27 00:46:38;;;;;;;29.27;23.52;;;18.60;99.90;;;18.13;100.00;98132.81;4985521;28;20054;-66
2022/08/27 00:49:32;;;;;;;27.55;24.38;;;18.60;99.90;;;18.11;100.00;98129.44;4967918;28;20571;-66
2022/08/27 00:52:07;;;;;;;28.20;23.50;;;18.60;99.90;;;18.10;100.00;98117.25;4980134;28;20715;-66
2022/08/27 00:54:34;;;;;;;26.45;21.77;;;18.60;99.90;;;18.22;100.00;98119.06;4986273;28;20153;-66
2022/08/27 00:57:02;;;;;;;23.58;20.02;;;18.70;99.90;;;18.25;100.00;98123.31;4983295;28;20656;-66
2022/08/27 00:59:31;;;;;;;26.30;21.67;;;18.70;99.90;;;18.29;100.00;98112.50;4982709;28;20047;-66
2022/08/27 01:02:17;;;;;;;31.13;22.17;;;18.70;99.90;;;18.27;100.00;98103.00;4985097;28;20079;-66
2022/08/27 01:04:59;;;;;;;29.15;22.95;;;18.80;99.90;;;18.19;100.00;98095.63;4982382;28;20085;-67
2022/08/27 01:07:29;;;;;;;27.50;23.88;;;18.80;99.90;;;18.19;100.00;98093.84;4980920;28;20140;-67
2022/08/27 01:10:00;;;;;;;25.55;22.98;;;18.70;99.90;;;18.16;100.00;98095.84;4982580;28;20065;-66
2022/08/27 01:12:30;;;;;;;28.48;22.15;;;18.70;99.90;;;18.16;100.00;98093.22;4985938;28;20050;-66
2022/08/27 01:14:59;;;;;;;22.48;20.17;;;18.70;99.90;;;18.26;100.00;98096.91;4986673;28;20134;-67
2022/08/27 01:17:26;;;;;;;25.55;21.38;;;18.70;99.90;;;18.20;100.00;98084.19;4985221;28;20056;-67
2022/08/27 01:20:01;;;;;;;26.10;21.92;;;18.80;99.90;;;18.17;100.00;98085.22;4984330;28;20453;-66
2022/08/27 01:23:03;;;;;;;24.40;21.80;;;18.70;99.90;;;18.17;100.00;98084.38;4984343;28;20050;-67
2022/08/27 01:25:30;;;;;;;26.45;22.38;;;18.80;99.90;;;18.22;100.00;98087.53;4984255;28;20134;-65
2022/08/27 01:28:00;;;;;;;21.25;17.73;;;18.80;99.90;;;18.34;100.00;98081.50;4984508;28;20062;-67
2022/08/27 01:30:27;;;;;;;23.65;18.17;;;18.80;99.90;;;18.36;100.00;98076.16;4985357;28;20531;-66
2022/08/27 01:32:54;;;;;;;23.77;19.33;;;18.80;99.90;;;18.31;100.00;98067.69;4983780;28;20496;-66
2022/08/27 01:35:22;;;;;;;24.40;19.92;;;18.90;99.90;;;18.48;100.00;98062.16;4982553;28;20047;-67
2022/08/27 01:37:53;;;;;;;17.00;14.68;;;18.90;99.90;;;18.60;100.00;98066.59;4981883;28;20523;-66
2022/08/27 01:40:23;;;;;;;20.92;18.25;;;18.90;99.90;;;18.45;100.00;98066.78;4980642;28;20596;-66
2022/08/27 01:42:54;;;;;;;24.20;19.55;;;18.90;99.90;;;18.31;100.00;98071.16;4984917;28;20542;-66
2022/08/27 01:45:33;;;;;;;23.38;20.83;;;18.90;99.90;;;18.25;100.00;98066.34;4983953;28;20050;-66
2022/08/27 01:48:02;;;;;;;23.00;19.58;;;18.90;99.90;;;18.44;100.00;98065.94;4984096;28;20060;-67
2022/08/27 01:50:36;;;;;;;27.17;22.92;;;18.90;99.90;;;18.30;100.00;98064.22;4982641;28;20056;-66
2022/08/27 01:53:17;;;;;;;27.77;23.92;;;18.90;99.90;;;18.23;100.00;98078.72;4983468;28;20054;-67
2022/08/27 01:55:46;;;;;;;25.40;22.15;;;18.80;99.90;;;18.23;100.00;98080.53;4984891;28;20042;-66
2022/08/27 01:58:16;;;;;;;29.67;23.08;;;18.80;99.90;;;18.30;100.00;98077.38;4984479;28;20134;-66
2022/08/27 02:00:48;;;;;;;22.95;20.55;;;18.80;99.90;;;18.27;100.00;98076.72;4983276;28;20072;-67
2022/08/27 02:03:23;;;;;;;25.92;22.25;;;18.80;99.90;;;18.18;100.00;98078.19;4982582;28;20416;-66
2022/08/27 02:05:50;;;;;;;28.50;25.45;;;18.80;99.90;;;18.12;100.00;98079.41;4983961;28;20052;-67
2022/08/27 02:08:18;;;;;;;29.08;24.65;;;18.70;99.90;;;18.07;100.00;98068.38;4980691;28;20133;-66
2022/08/27 02:10:47;;;;;;;28.05;24.95;;;18.60;99.90;;;18.00;100.00;98064.47;4985200;28;20798;-67
2022/08/27 02:13:15;;;;;;;26.75;23.85;;;18.60;99.90;;;18.02;100.00;98059.97;4985699;28;20497;-67
2022/08/27 02:15:43;;;;;;;24.90;22.13;;;18.60;99.90;;;18.13;100.00;98065.34;4983807;28;20489;-66
2022/08/27 02:18:12;;;;;;;26.33;23.52;;;18.70;99.90;;;18.00;100.00;98053.13;4979386;28;20135;-66
2022/08/27 02:20:39;;;;;;;26.92;22.05;;;18.60;99.90;;;18.04;100.00;98070.34;4982063;28;20062;-67
2022/08/27 02:23:07;;;;;;;25.65;22.75;;;18.60;99.90;;;18.09;100.00;98061.25;4981656;28;20058;-67
2022/08/27 02:25:35;;;;;;;24.45;21.90;;;18.60;99.90;;;18.10;100.00;98068.16;4983066;28;20485;-68
2022/08/27 02:28:05;;;;;;;24.30;21.83;;;18.70;99.90;;;18.09;100.00;98063.88;4981733;28;20051;-67
2022/08/27 02:30:34;;;;;;;23.70;21.27;;;18.70;99.90;;;18.19;100.00;98077.25;4981297;28;20050;-66
2022/08/27 02:33:03;;;;;;;26.38;23.58;;;18.80;99.90;;;18.21;100.00;98071.88;4979144;28;20049;-66
2022/08/27 02:35:33;;;;;;;27.95;24.85;;;18.80;99.90;;;18.07;100.00;98065.75;4980555;28;20118;-66
2022/08/27 02:38:01;;;;;;;31.23;25.42;;;18.70;99.90;;;17.95;100.00;98071.81;4982421;28;20472;-66
2022/08/27 02:40:28;;;;;;;28.83;25.73;;;18.60;99.90;;;17.87;100.00;98069.66;4983601;28;20051;-65
2022/08/27 02:42:55;;;;;;;33.72;28.10;;;18.50;99.90;;;17.82;100.00;98077.00;4980016;28;20054;-68
2022/08/27 02:45:22;;;;;;;28.42;25.55;;;18.40;99.90;;;17.82;100.00;98081.41;4983085;28;20152;-65
2022/08/27 02:47:49;;;;;;;25.00;22.27;;;18.50;99.90;;;17.97;100.00;98091.78;4983537;28;20050;-66
2022/08/27 02:50:16;;;;;;;34.10;28.42;;;18.50;99.90;;;17.91;100.00;98088.72;4979709;28;20100;-66
2022/08/27 02:52:46;;;;;;;31.30;26.90;;;18.50;99.90;;;17.98;100.00;98084.75;4978688;28;20473;-67
2022/08/27 02:55:15;;;;;;;30.70;27.13;;;18.50;99.90;;;17.92;100.00;98088.59;4976813;28;20150;-65
2022/08/27 02:57:44;;;;;;;31.27;27.90;;;18.60;99.90;;;17.91;100.00;98086.91;4978999;28;20054;-67
2022/08/27 03:00:16;;;;;;;30.33;27.23;;;18.50;99.90;;;17.82;100.00;98090.13;4980404;28;20046;-67
2022/08/27 03:02:43;;;;;;;;;;;18.50;99.90;;;17.85;100.00;98089.09;4981566;28;20058;-66
2022/08/27 03:05:12;;;;;;;30.83;27.13;;;18.40;99.90;;;17.90;100.00;98097.50;4981605;28;19925;-66
2022/08/27 03:07:40;;;;;;;34.63;30.85;;;18.40;99.90;;;17.73;100.00;98095.94;4981677;28;20129;-66
2022/08/27 03:10:10;;;;;;;36.63;32.72;;;18.50;99.90;;;17.66;100.00;98098.09;4985267;28;20129;-67
2022/08/27 03:12:38;;;;;;;39.80;34.42;;;18.40;99.90;;;17.52;100.00;98109.47;4982354;28;20050;-67
2022/08/27 03:15:09;;;;;;;38.53;34.42;;;18.30;99.90;;;17.44;100.00;98119.59;4981472;28;20042;-66
2022/08/27 03:20:24;;;;;;;38.53;34.42;;;18.30;99.90;;;17.56;100.00;98136.34;4982541;28;20085;-65
2022/08/27 03:22:51;;;;;;;32.15;28.38;;;18.30;99.90;;;17.66;100.00;98141.91;4981363;28;20085;-66
2022/08/27 03:25:19;;;;;;;31.88;28.58;;;18.30;99.90;;;17.54;100.00;98152.22;4981622;28;20137;-66
2022/08/27 03:27:46;;;;;;;29.52;26.33;;;18.30;99.90;;;17.60;100.00;98153.59;4981857;28;20058;-67
2022/08/27 03:30:18;;;;;;;26.20;23.45;;;18.30;99.90;;;17.65;100.00;98161.19;4981155;28;20080;-66
2022/08/27 03:32:45;;;;;;;25.17;22.60;;;18.30;99.90;;;17.69;100.00;98167.94;4980120;28;20408;-67
2022/08/27 03:35:14;;;;;;;23.83;20.27;;;18.30;99.90;;;17.74;100.00;98172.00;4981474;28;20210;-66
2022/08/27 03:37:41;;;;;;;21.80;19.65;;;18.30;99.90;;;17.63;100.00;98166.56;4979279;28;20050;-66
2022/08/27 03:40:09;;;;;;;26.13;22.45;;;18.30;99.90;;;17.62;100.00;98169.28;4978641;28;20138;-66
2022/08/27 03:42:37;;;;;;;23.48;20.27;;;18.30;99.90;;;17.68;100.00;98172.38;4980479;28;20050;-66
2022/08/27 03:45:06;;;;;;;18.50;16.60;;;18.30;99.90;;;17.64;100.00;98168.22;4972978;28;20064;-67
2022/08/27 03:47:33;;;;;;;22.25;19.95;;;18.30;99.90;;;17.65;100.00;98171.69;4979030;28;20070;-66
2022/08/27 03:50:01;;;;;;;20.30;17.85;;;18.30;99.90;;;17.55;100.00;98171.44;4983760;28;20046;-66
2022/08/27 03:52:28;;;;;;;17.40;15.00;;;18.30;99.90;;;17.42;100.00;98170.50;4978572;28;20046;-66
2022/08/27 03:54:55;;;;;;;19.73;17.77;;;18.20;99.90;;;17.39;100.00;98170.69;4982157;28;20134;-66
2022/08/27 03:57:22;;;;;;;14.13;12.70;;;18.10;99.90;;;17.32;100.00;98175.47;4980596;28;20049;-66
2022/08/27 03:59:51;;;;;;;15.70;12.35;;;18.10;99.90;;;17.48;100.00;98176.22;4977658;28;21510;-67
2022/08/27 04:02:20;;;;;;;14.00;11.77;;;18.10;99.90;;;17.58;100.00;98168.59;4998487;28;20104;-66
2022/08/27 04:04:47;;;;;;;9.20;7.35;;;18.00;99.90;;;17.70;100.00;98173.13;4981112;28;20890;-67
2022/08/27 04:07:14;;;;;;;9.30;7.80;;;18.10;99.90;;;17.84;100.00;98161.78;4981228;28;20050;-66
2022/08/27 04:09:41;;;;;;;10.27;8.95;;;18.10;99.90;;;17.75;100.00;98149.19;4982903;28;20129;-66
2022/08/27 04:12:08;;;;;;;11.65;10.07;;;18.20;99.90;;;17.74;100.00;98139.63;4980470;28;20588;-67
2022/08/27 04:14:35;;;;;;;9.15;8.25;;;18.20;99.90;;;17.74;100.00;98137.00;4981704;28;20133;-66
2022/08/27 04:17:02;;;;;;;10.38;9.23;;;18.10;99.90;;;17.59;100.00;98137.97;4983243;28;20065;-67
2022/08/27 04:19:31;;;;;;;10.77;9.45;;;18.10;99.90;;;17.55;100.00;98138.13;5002281;28;20125;-67
2022/08/27 04:22:02;;;;;;;10.57;9.48;;;18.00;99.90;;;17.38;100.00;98133.09;4985063;28;20483;-65
2022/08/27 04:24:35;;;;;;;12.43;9.93;;;17.90;99.90;;;17.28;100.00;98145.09;4981733;28;20054;-66
2022/08/27 04:27:04;;;;;;;11.80;9.80;;;17.80;99.90;;;17.34;100.00;98144.72;4982309;28;20117;-67
2022/08/27 04:29:32;;;;;;;11.07;9.55;;;17.80;99.90;;;17.28;100.00;98150.34;4984907;28;20164;-66
2022/08/27 04:32:00;;;;;;;9.65;8.65;;;17.80;99.90;;;17.17;100.00;98155.38;4998656;28;20068;-66
2022/08/27 04:34:27;;;;;;;9.93;8.90;;;17.80;99.90;;;17.19;100.00;98156.97;4986043;28;20059;-67
2022/08/27 04:36:56;;;;;;;11.93;9.38;;;17.80;99.90;;;17.19;100.00;98164.00;4985395;28;20357;-67
2022/08/27 04:39:25;;;;;;;13.10;9.30;;;17.80;99.90;;;17.20;100.00;98173.59;4986726;28;20557;-67
2022/08/27 04:41:55;;;;;;;10.65;9.65;;;17.70;99.90;;;17.11;100.00;98177.59;4985508;28;20051;-66
2022/08/27 04:44:24;;;;;;;14.60;8.88;;;17.70;99.90;;;17.11;100.00;98188.09;4980347;28;20089;-65
2022/08/27 04:46:56;;;;;;;12.15;6.65;;;17.70;99.90;;;17.04;100.00;98184.16;4982647;28;20133;-67
2022/08/27 04:49:25;;;;;;;9.80;7.20;;;17.60;99.90;;;16.93;100.00;98188.22;4983441;28;20046;-67
2022/08/27 04:51:52;;;;;;;7.85;6.72;;;17.70;99.90;;;17.02;100.00;98193.88;4975511;28;20453;-66
2022/08/27 04:54:21;;;;;;;8.00;7.20;;;17.60;99.90;;;16.92;100.00;98186.56;4980906;28;20056;-66
2022/08/27 04:57:01;;;;;;;9.13;8.20;;;17.60;99.90;;;16.88;100.00;98189.44;4985139;28;20057;-66
2022/08/27 04:59:30;;;;;;;13.15;8.45;;;17.50;99.90;;;16.78;100.00;98188.25;4985742;28;20129;-66
2022/08/27 05:01:57;;;;;;;9.95;8.18;;;17.40;99.90;;;16.76;100.00;98206.69;4978941;28;20116;-66
2022/08/27 05:04:24;;;;;;;7.65;6.80;;;17.40;99.90;;;16.77;100.00;98215.41;5001481;28;20055;-67
2022/08/27 05:06:52;;;;;;;7.60;6.65;;;17.40;99.90;;;16.89;100.00;98219.97;4980880;28;20193;-66
2022/08/27 05:09:21;;;;;;;6.95;6.25;;;17.50;99.90;;;16.88;100.00;98227.00;4984701;28;20095;-66
2022/08/27 05:11:54;;;;;;;7.60;6.03;;;17.50;99.90;;;16.98;100.00;98234.31;4986814;28;20497;-65
2022/08/27 05:14:22;;;;;;;5.38;4.88;;;17.50;99.90;;;17.11;100.00;98243.16;4982667;28;20056;-67
2022/08/27 05:16:49;;;;;;;6.93;5.10;;;17.60;99.90;;;17.15;100.00;98234.16;4987771;28;20092;-66
2022/08/27 05:19:16;;;;;;;7.30;4.72;;;17.60;99.90;;;17.24;100.00;98243.28;4981829;28;20046;-67
2022/08/27 05:21:48;;;;;;;6.10;5.13;;;17.70;99.90;;;17.29;100.00;98226.34;5001943;28;20602;-67
2022/08/27 05:24:16;;;;;;;6.13;5.32;;;17.80;99.90;;;17.17;100.00;98228.84;5003500;28;20053;-67
2022/08/27 05:26:44;;;;;;;5.90;5.30;;;17.70;99.90;;;17.27;100.00;98215.09;4986482;28;20062;-67
2022/08/27 05:29:12;;;;;;;6.57;4.57;;;17.80;99.90;;;17.23;100.00;98220.63;5001845;28;20109;-66
2022/08/27 05:31:40;;;;;;;6.78;4.90;;;17.80;99.90;;;17.38;100.00;98213.59;4998905;28;20056;-67
2022/08/27 05:34:08;;;;;;;6.78;4.70;;;17.90;99.90;;;17.31;100.00;98200.00;4986247;28;20050;-67
2022/08/27 05:36:41;;;;;;;6.20;5.15;;;17.90;99.90;;;17.29;100.00;98192.22;4982025;28;20045;-66
2022/08/27 05:39:15;;;;;;;5.65;5.07;;;17.90;99.90;;;17.35;100.00;98193.63;4983416;28;20061;-66
2022/08/27 05:41:42;;;;;;;5.20;4.57;;;17.90;99.90;;;17.45;100.00;98193.94;4986022;28;20144;-67
2022/08/27 05:44:10;;;;;;;6.80;4.80;;;18.00;99.90;;;17.60;100.00;98198.22;4986471;28;20074;-67
2022/08/27 05:46:57;;;;;;;6.30;5.68;;;18.10;99.90;;;17.47;100.00;98186.78;4985319;28;20061;-67
2022/08/27 05:49:24;;;;;;;5.60;4.85;;;18.10;99.90;;;17.51;100.00;98181.25;4983165;28;20481;-67
2022/08/27 05:51:51;;;;;;;5.97;5.38;;;18.20;99.90;;;17.66;100.00;98176.88;4982048;28;20056;-66
2022/08/27 05:54:19;;;;;;;5.35;4.85;;;18.20;99.90;;;17.73;100.00;98182.56;4979572;28;20078;-67
2022/08/27 05:56:50;;;;;;;5.63;4.88;;;18.40;99.90;;;17.79;100.00;98169.09;4977771;28;20100;-66
2022/08/27 06:02:05;;;;;;;8.75;7.00;;;18.50;99.90;;;17.70;100.00;98164.41;4996712;28;20058;-66
2022/08/27 06:04:33;;;;;;;8.55;7.65;;;18.40;99.90;;;17.70;100.00;98164.41;4982745;28;20058;-67
2022/08/27 06:07:00;;;;;;;11.68;8.52;;;18.40;99.90;;;17.76;100.00;98159.59;4980371;28;20057;-66
2022/08/27 06:09:28;;;;;;;10.07;9.15;;;18.40;99.90;;;17.83;100.00;98164.50;4984447;28;20064;-67
2022/08/27 06:11:58;;;;;;;10.57;9.48;;;18.40;99.90;;;17.67;100.00;98152.28;4980882;28;20117;-67
2022/08/27 06:14:26;;;;;;;13.27;10.43;;;18.40;99.90;;;17.58;100.00;98149.41;4985528;28;20074;-66
2022/08/27 06:16:54;;;;;;;11.90;10.70;;;18.30;99.90;;;17.62;100.00;98148.28;4981967;28;20161;-67
2022/08/27 06:19:22;;;;;;;15.68;13.23;;;18.40;99.90;;;17.55;100.00;98155.69;4984696;28;20058;-66
2022/08/27 06:21:49;;;;;;;12.90;11.60;;;18.40;99.90;;;17.75;100.00;98163.16;4982050;28;20058;-67
2022/08/27 06:24:38;;;;;;;13.30;11.50;;;18.30;99.90;;;17.77;100.00;98170.97;4980981;28;20062;-67
2022/08/27 06:27:08;;;;;;;15.60;14.00;;;18.40;99.90;;;17.63;100.00;98166.56;4982883;28;20504;-67
2022/08/27 06:29:35;;;;;;;14.75;13.25;;;18.50;99.90;;;17.73;100.00;98179.94;4986415;28;20084;-67
2022/08/27 06:32:02;;;;;;;17.25;15.25;;;18.50;99.90;;;17.64;100.00;98175.28;4984577;28;20134;-66
2022/08/27 06:34:29;;;;;;;17.00;15.27;;;18.40;99.90;;;17.65;100.00;98176.94;4981914;28;20130;-67
2022/08/27 06:36:56;;;;;;;19.98;17.85;;;18.40;99.90;;;17.61;100.00;98172.81;4981531;28;20068;-67
2022/08/27 06:39:23;;;;;;;18.95;16.02;;;18.40;99.90;;;17.72;100.00;98184.38;4982358;28;20050;-67
2022/08/27 06:41:51;;;;;;;20.38;17.75;;;18.50;99.90;;;17.60;100.00;98177.22;4982324;28;20141;-66
2022/08/27 06:44:19;;;;;;;20.80;16.73;;;18.40;99.90;;;17.73;100.00;98191.28;4985168;28;20141;-66
2022/08/27 06:46:47;;;;;;;19.67;17.10;;;18.50;99.90;;;17.73;100.00;98195.72;4983383;28;20544;-67
2022/08/27 06:49:13;;;;;;;21.45;18.58;;;18.50;99.90;;;17.73;100.00;98182.56;4979293;28;20116;-67
2022/08/27 06:51:45;;;;;;;17.55;15.63;;;18.50;99.90;;;17.92;100.00;98177.88;4982730;28;20061;-67
2022/08/27 06:54:14;;;;;;;17.48;15.68;;;18.60;99.90;;;18.02;100.00;98177.28;4982326;28;20078;-68
2022/08/27 06:56:43;;;;;;;21.08;18.63;;;18.60;99.90;;;17.93;100.00;98170.88;4982850;28;20091;-67
2022/08/27 06:59:14;;;;;;;22.45;19.13;;;18.60;99.90;;;17.89;100.00;98172.00;4984612;28;20078;-68
2022/08/27 07:01:44;;;;;;;19.73;17.52;;;18.70;99.90;;;17.94;100.00;98170.75;4986090;28;20057;-67
2022/08/27 07:04:18;;;;;;;20.42;18.00;;;18.70;99.90;;;17.89;100.00;98161.50;4981373;28;20085;-68
2022/08/27 07:06:45;;;;;;;19.63;17.52;;;18.70;99.90;;;18.06;100.00;98173.53;4982264;28;20065;-67
2022/08/27 07:09:13;;;;;;;24.92;21.30;;;18.70;99.90;;;17.86;100.00;98166.91;4982811;28;20054;-67
2022/08/27 07:11:39;;;;;;;22.88;19.00;;;18.60;99.90;;;17.93;100.00;98163.00;4984572;28;20081;-67
2022/08/27 07:14:07;;;;;;;21.05;17.98;;;18.60;99.90;;;18.08;100.00;98167.25;4981940;28;20049;-67
2022/08/27 07:16:35;;;;;;;20.63;18.50;;;18.60;99.90;;;18.07;100.00;98162.13;4985386;28;20046;-68
2022/08/27 07:19:04;;;;;;;21.52;19.17;;;18.70;99.90;;;17.90;100.00;98156.16;4981283;28;20118;-67
2022/08/27 07:21:33;;;;;;;22.70;19.45;;;18.70;99.90;;;18.05;100.00;98150.84;4981615;28;20051;-68
2022/08/27 07:24:03;;;;;;;22.23;19.85;;;18.70;99.90;;;18.04;100.00;98150.03;4983809;28;20054;-67
2022/08/27 07:26:35;;;;;;;23.30;20.77;;;18.80;99.90;;;18.00;100.00;98153.78;4981566;28;20077;-67
2022/08/27 07:29:07;;;;;;;26.17;21.73;;;18.70;99.90;;;18.01;100.00;98154.63;5001385;28;20068;-67
2022/08/27 07:31:35;;;;;;;27.48;22.92;;;18.70;99.90;;;17.96;100.00;98158.38;4981419;28;20064;-67
2022/08/27 07:34:04;;;;;;;26.08;22.02;;;18.70;99.90;;;18.11;100.00;98164.44;4983805;28;20046;-66
2022/08/27 07:36:33;;;;;;;23.85;21.17;;;18.80;99.90;;;18.10;100.00;98160.13;4982442;28;20163;-67
2022/08/27 07:39:00;;;;;;;23.38;20.50;;;18.80;99.90;;;18.27;100.00;98159.06;4979210;28;20140;-67
2022/08/27 07:44:23;;;;;;;26.45;23.52;;;18.90;99.90;;;18.39;100.00;98165.28;4983712;28;20229;-68
2022/08/27 07:44:26;;;;;;;24.35;21.38;;;19.10;99.90;;;18.57;100.00;98158.00;4994175;28;20046;-67
2022/08/27 07:46:57;;;;;;;28.23;23.85;;;19.30;99.90;;;18.52;100.00;98154.78;4982906;28;20089;-67
2022/08/27 07:49:27;;;;;;;21.33;19.05;;;19.30;99.90;;;18.71;100.00;98150.03;4981365;28;20062;-67
2022/08/27 07:51:55;;;;;;;26.50;20.63;;;19.40;99.90;;;18.87;100.00;98149.88;4979552;28;20097;-66
2022/08/27 07:54:22;;;;;;;26.40;20.77;;;19.60;99.90;;;19.01;100.00;98143.66;4980257;28;20173;-67
2022/08/27 07:56:51;;;;;;;21.35;18.35;;;19.80;99.90;;;19.26;100.00;98134.09;4979662;28;20065;-67
2022/08/27 07:59:23;;;;;;;23.40;18.10;;;20.00;99.90;;;19.28;100.00;98125.16;4998099;28;20133;-67
2022/08/27 08:01:54;;;;;;;25.45;21.20;;;20.10;99.90;;;19.00;100.00;98119.16;4982065;28;20050;-67
2022/08/27 08:04:21;;;;;;;22.27;19.88;;;20.20;99.90;;;18.98;100.00;98115.78;4977574;28;20643;-66
2022/08/27 08:06:49;;;;;;;21.95;19.23;;;20.30;99.90;;;19.01;100.00;98104.22;4978938;28;20473;-68
2022/08/27 08:09:16;;;;;;;21.60;18.65;;;20.20;99.90;;;19.21;100.00;98108.09;4978727;28;20108;-67
2022/08/27 08:11:43;;;;;;;22.77;20.20;;;20.20;99.90;;;19.28;100.00;98106.72;4978280;28;20042;-68
2022/08/27 08:14:10;;;;;;;21.10;18.27;;;20.30;99.90;;;19.50;100.00;98103.44;4981535;28;20457;-67
2022/08/27 08:16:37;;;;;;;24.77;20.33;;;20.20;99.90;;;19.29;100.00;98099.66;4979138;28;20050;-67
2022/08/27 08:19:04;;;;;;;20.70;18.50;;;20.30;99.90;;;19.25;100.00;98096.41;4982728;28;20047;-67
2022/08/27 08:21:31;;;;;;;22.52;17.85;;;20.40;99.90;;;19.52;100.00;98108.56;4978799;28;20054;-66
2022/08/27 08:23:59;;;;;;;20.42;17.63;;;20.40;99.90;;;19.79;100.00;98098.75;4974110;28;20590;-67
2022/08/27 08:26:26;;;;;;;24.90;19.98;;;20.40;99.90;;;19.52;100.00;98087.50;4980003;28;20476;-67
2022/08/27 08:28:53;;;;;;;21.90;17.90;;;20.50;99.90;;;19.58;100.00;98082.66;5000401;28;20133;-67
2022/08/27 08:31:22;;;;;;;22.48;19.05;;;20.50;99.90;;;19.78;100.00;98088.34;4979623;28;20043;-68
2022/08/27 08:33:51;;;;;;;22.55;19.42;;;20.70;99.90;;;19.79;100.00;98088.19;4984108;28;20498;-68
2022/08/27 08:36:18;;;;;;;23.90;21.30;;;20.70;99.90;;;19.57;100.00;98082.78;4980776;28;20467;-67
2022/08/27 08:38:47;;;;;;;22.05;18.83;;;20.70;99.90;;;19.83;100.00;98088.84;4984055;28;20064;-68
2022/08/27 08:41:40;;;;;;;24.52;21.23;;;20.80;99.90;;;19.88;100.00;98088.50;4982898;28;20491;-66
2022/08/27 08:44:39;;;;;;;27.58;21.42;;;20.80;99.90;;;19.62;100.00;98080.66;4982828;28;20501;-67
2022/08/27 08:47:19;;;;;;;25.15;21.10;;;20.70;99.90;;;19.51;100.00;98075.31;4982523;28;20060;-67
2022/08/27 08:50:04;;;;;;;28.85;23.55;;;20.60;99.90;;;19.47;100.00;98094.91;4981135;28;20650;-67
2022/08/27 08:52:35;;;;;;;27.73;23.38;;;20.50;99.90;;;19.42;100.00;98098.69;4978777;28;20492;-68
2022/08/27 08:55:36;;;;;;;28.90;23.98;;;20.50;99.90;;;19.37;100.00;98092.91;4982834;28;20504;-67
2022/08/27 08:58:29;;;;;;;29.08;23.17;;;20.40;99.90;;;19.44;100.00;98103.88;4980672;28;20576;-67
2022/08/27 09:01:02;;;;;;;22.40;18.98;;;20.20;99.90;;;19.60;100.00;98111.53;4980416;28;20627;-67
2022/08/27 09:03:35;;;;;;;27.17;22.17;;;20.30;99.90;;;19.65;100.00;98102.31;4963698;28;20058;-67
2022/08/27 09:06:07;;;;;;;24.52;22.02;;;20.40;99.90;;;19.50;100.00;98105.22;4978510;28;20054;-67
2022/08/27 09:08:40;;;;;;;27.02;20.48;;;20.40;99.90;;;19.40;100.00;98099.75;4981636;28;20050;-67
2022/08/27 09:11:23;;;;;;;24.13;20.40;;;20.40;99.90;;;19.56;100.00;98104.78;4980884;28;20162;-68
2022/08/27 09:13:59;;;;;;;28.80;22.92;;;20.30;99.90;;;19.28;100.00;98104.09;4983767;28;20078;-67
2022/08/27 09:16:27;;;;;;;28.90;23.58;;;20.20;99.90;;;19.25;100.00;98111.34;4982116;28;20131;-68
2022/08/27 09:18:55;;;;;;;25.30;21.92;;;20.20;99.90;;;19.23;100.00;98119.38;4980227;28;20856;-66
2022/08/27 09:21:43;;;;;;;24.85;21.33;;;20.20;99.90;;;19.44;100.00;98122.28;4981037;28;20062;-67
2022/08/27 09:25:09;;;;;;;26.20;21.45;;;20.20;99.90;;;19.46;100.00;98128.28;4989775;28;20093;-67
2022/08/27 09:27:40;;;;;;;27.17;21.50;;;20.30;99.90;;;19.38;100.00;98138.50;4961004;28;20475;-68
2022/08/27 09:30:15;;;;;;;23.95;19.35;;;20.30;99.90;;;19.60;100.00;98135.22;4976235;28;20081;-67
2022/08/27 09:32:42;;;;;;;20.52;16.10;;;20.40;99.90;;;19.85;100.00;98137.81;4995082;28;20057;-67
2022/08/27 09:35:12;;;;;;;21.50;17.50;;;20.60;99.90;;;19.85;100.00;98142.25;4980718;28;20054;-66
2022/08/27 09:37:44;;;;;;;22.42;19.30;;;20.70;99.90;;;19.83;100.00;98141.53;4977905;28;20093;-67
2022/08/27 09:40:15;;;;;;;;;;;20.60;99.90;;;19.70;100.00;98132.81;4979767;28;20054;-65
2022/08/27 09:43:06;;;;;;;24.70;20.60;;;20.60;99.90;;;19.64;100.00;98134.91;4983020;28;19921;-68
2022/08/27 09:45:34;;;;;;;26.58;21.35;;;20.50;99.90;;;19.58;100.00;98130.06;4974896;28;20515;-68
2022/08/27 09:48:09;;;;;;;24.17;19.58;;;20.50;99.90;;;19.66;100.00;98132.16;4983944;28;20057;-68
2022/08/27 09:50:57;;;;;;;25.45;20.65;;;20.60;99.90;;;19.52;100.00;98132.28;4982553;28;20055;-67
2022/08/27 09:54:00;;;;;;;25.95;20.70;;;20.70;99.90;;;19.76;100.00;98127.09;4985799;28;20597;-67
2022/08/27 09:56:47;;;;;;;26.38;20.38;;;20.80;99.90;;;19.74;100.00;98118.47;4984994;28;20066;-68
2022/08/27 09:59:37;;;;;;;26.15;20.13;;;20.80;99.90;;;20.05;100.00;98112.69;4981940;28;20755;-67
2022/08/27 10:02:20;;;;;;;23.13;20.48;;;20.90;99.90;;;20.12;100.00;98117.50;4976949;28;20522;-68
2022/08/27 10:04:52;;;;;;;22.42;19.42;;;21.00;99.90;;;20.08;100.00;98101.06;4980792;28;20077;-68
2022/08/27 10:07:34;;;;;;;24.65;20.08;;;21.20;99.90;;;20.13;100.00;98104.19;5000982;28;20054;-68
2022/08/27 10:10:21;;;;;;;24.35;21.60;;;21.30;99.90;;;20.32;100.00;98103.72;4977978;28;20058;-68
2022/08/27 10:13:19;;;;;;;30.10;20.75;;;21.50;99.90;;;20.74;100.00;98090.91;4979730;28;20051;-68
2022/08/27 10:16:01;;;;;;;18.90;16.42;;;21.70;99.90;;;21.05;100.00;98089.41;4975141;28;20046;-68
2022/08/27 10:18:47;;;;;;;24.33;21.45;;;21.90;99.90;;;20.91;100.00;98075.59;4977136;28;20042;-65
2022/08/27 10:21:46;;;;;;;24.58;20.27;;;22.10;99.90;;;21.17;100.00;98071.78;4981232;28;20065;-66
2022/08/27 10:24:34;;;;;;;26.20;21.52;;;22.20;99.90;;;20.80;100.00;98071.13;4985964;28;20082;-67
2022/08/27 10:27:14;;;;;;;21.70;19.27;;;22.30;99.90;;;20.79;100.00;98072.94;4984467;28;20070;-69